sensor_id;sensor_type;location;lat;lon;timestamp;P1;durP1;ratioP1;P2;durP2;ratioP2
19329;SDS011;9799;48.214;16.388;2023-07-13T00:00:54;3.20;;;2.50;;
19329;SDS011;9799;48.214;16.388;2023-07-13T00:04:21;5.32;;;2.33;;
19329;SDS011;9799;48.214;16.388;2023-07-13T00:07:44;3.15;;;2.15;;
19329;SDS011;9799;48.214;16.388;2023-07-13T00:11:06;3.58;;;2.00;;
19329;SDS011;9799;48.214;16.388;2023-07-13T00:14:27;4.97;;;2.00;;
19329;SDS011;9799;48.214;16.388;2023-07-13T00:17:51;2.90;;;2.20;;
19329;SDS011;9799;48.214;16.388;2023-07-13T00:21:13;2.90;;;1.75;;
19329;SDS011;9799;48.214;16.388;2023-07-13T00:24:35;3.35;;;2.15;;
19329;SDS011;9799;48.214;16.388;2023-07-13T00:28:00;2.50;;;2.22;;
19329;SDS011;9799;48.214;16.388;2023-07-13T00:31:23;2.08;;;1.55;;
19329;SDS011;9799;48.214;16.388;2023-07-13T00:34:46;3.17;;;1.75;;
19329;SDS011;9799;48.214;16.388;2023-07-13T00:38:07;2.17;;;1.95;;
19329;SDS011;9799;48.214;16.388;2023-07-13T00:41:28;1.65;;;1.38;;
19329;SDS011;9799;48.214;16.388;2023-07-13T00:45:03;2.78;;;1.88;;
19329;SDS011;9799;48.214;16.388;2023-07-13T00:48:25;2.00;;;1.80;;
19329;SDS011;9799;48.214;16.388;2023-07-13T00:51:53;2.38;;;2.00;;
19329;SDS011;9799;48.214;16.388;2023-07-13T00:55:17;3.13;;;1.83;;
19329;SDS011;9799;48.214;16.388;2023-07-13T00:58:39;2.60;;;2.03;;
19329;SDS011;9799;48.214;16.388;2023-07-13T01:02:00;1.60;;;1.50;;
19329;SDS011;9799;48.214;16.388;2023-07-13T01:05:21;2.03;;;1.88;;
19329;SDS011;9799;48.214;16.388;2023-07-13T01:08:44;3.42;;;1.85;;
19329;SDS011;9799;48.214;16.388;2023-07-13T01:12:06;2.17;;;1.98;;
19329;SDS011;9799;48.214;16.388;2023-07-13T01:15:35;2.35;;;1.90;;
19329;SDS011;9799;48.214;16.388;2023-07-13T01:18:58;2.10;;;1.77;;
19329;SDS011;9799;48.214;16.388;2023-07-13T01:22:21;1.80;;;1.70;;
19329;SDS011;9799;48.214;16.388;2023-07-13T01:25:46;1.80;;;1.50;;
19329;SDS011;9799;48.214;16.388;2023-07-13T01:29:07;2.97;;;1.30;;
19329;SDS011;9799;48.214;16.388;2023-07-13T01:32:28;2.35;;;1.63;;
19329;SDS011;9799;48.214;16.388;2023-07-13T01:35:51;0.98;;;0.93;;
19329;SDS011;9799;48.214;16.388;2023-07-13T01:39:14;1.48;;;1.30;;
19329;SDS011;9799;48.214;16.388;2023-07-13T01:42:36;1.80;;;1.63;;
19329;SDS011;9799;48.214;16.388;2023-07-13T01:45:58;2.15;;;1.42;;
19329;SDS011;9799;48.214;16.388;2023-07-13T01:49:19;1.70;;;1.50;;
19329;SDS011;9799;48.214;16.388;2023-07-13T01:52:40;2.42;;;1.65;;
19329;SDS011;9799;48.214;16.388;2023-07-13T01:56:02;2.78;;;1.90;;
19329;SDS011;9799;48.214;16.388;2023-07-13T01:59:24;1.58;;;1.48;;
19329;SDS011;9799;48.214;16.388;2023-07-13T02:02:45;2.45;;;1.52;;
19329;SDS011;9799;48.214;16.388;2023-07-13T02:06:06;2.20;;;1.70;;
19329;SDS011;9799;48.214;16.388;2023-07-13T02:09:27;1.80;;;1.63;;
19329;SDS011;9799;48.214;16.388;2023-07-13T02:12:50;2.63;;;1.80;;
19329;SDS011;9799;48.214;16.388;2023-07-13T02:16:11;2.95;;;2.10;;
19329;SDS011;9799;48.214;16.388;2023-07-13T02:19:32;3.35;;;2.00;;
19329;SDS011;9799;48.214;16.388;2023-07-13T02:22:54;2.35;;;2.10;;
19329;SDS011;9799;48.214;16.388;2023-07-13T02:26:15;3.92;;;2.00;;
19329;SDS011;9799;48.214;16.388;2023-07-13T02:29:37;2.92;;;2.33;;
19329;SDS011;9799;48.214;16.388;2023-07-13T02:32:59;2.92;;;1.80;;
19329;SDS011;9799;48.214;16.388;2023-07-13T02:36:20;2.00;;;1.85;;
19329;SDS011;9799;48.214;16.388;2023-07-13T02:39:41;3.65;;;2.05;;
19329;SDS011;9799;48.214;16.388;2023-07-13T02:43:02;3.80;;;2.17;;
19329;SDS011;9799;48.214;16.388;2023-07-13T02:46:25;2.90;;;2.13;;
19329;SDS011;9799;48.214;16.388;2023-07-13T02:49:46;3.80;;;2.13;;
19329;SDS011;9799;48.214;16.388;2023-07-13T02:53:07;2.15;;;1.95;;
19329;SDS011;9799;48.214;16.388;2023-07-13T02:56:29;2.38;;;2.17;;
19329;SDS011;9799;48.214;16.388;2023-07-13T02:59:51;3.80;;;2.17;;
19329;SDS011;9799;48.214;16.388;2023-07-13T03:03:13;3.55;;;2.10;;
19329;SDS011;9799;48.214;16.388;2023-07-13T03:06:35;3.20;;;2.10;;
19329;SDS011;9799;48.214;16.388;2023-07-13T03:09:56;2.40;;;2.05;;
19329;SDS011;9799;48.214;16.388;2023-07-13T03:13:18;2.53;;;2.28;;
19329;SDS011;9799;48.214;16.388;2023-07-13T03:16:39;5.43;;;2.35;;
19329;SDS011;9799;48.214;16.388;2023-07-13T03:20:02;2.80;;;2.10;;
19329;SDS011;9799;48.214;16.388;2023-07-13T03:23:24;2.17;;;1.92;;
19329;SDS011;9799;48.214;16.388;2023-07-13T03:26:45;4.97;;;2.10;;
19329;SDS011;9799;48.214;16.388;2023-07-13T03:30:07;4.63;;;2.10;;
19329;SDS011;9799;48.214;16.388;2023-07-13T03:33:29;3.65;;;2.30;;
19329;SDS011;9799;48.214;16.388;2023-07-13T03:36:53;2.22;;;2.00;;
19329;SDS011;9799;48.214;16.388;2023-07-13T03:40:15;3.38;;;2.35;;
19329;SDS011;9799;48.214;16.388;2023-07-13T03:43:36;4.53;;;2.38;;
19329;SDS011;9799;48.214;16.388;2023-07-13T03:46:57;2.10;;;1.80;;
19329;SDS011;9799;48.214;16.388;2023-07-13T03:50:18;5.05;;;2.05;;
19329;SDS011;9799;48.214;16.388;2023-07-13T03:53:42;2.95;;;2.75;;
19329;SDS011;9799;48.214;16.388;2023-07-13T03:57:04;3.33;;;2.30;;
19329;SDS011;9799;48.214;16.388;2023-07-13T04:00:25;2.03;;;1.88;;
19329;SDS011;9799;48.214;16.388;2023-07-13T04:03:47;2.13;;;1.92;;
19329;SDS011;9799;48.214;16.388;2023-07-13T04:07:08;4.00;;;2.50;;
19329;SDS011;9799;48.214;16.388;2023-07-13T04:10:31;3.33;;;2.05;;
19329;SDS011;9799;48.214;16.388;2023-07-13T04:13:52;3.65;;;2.75;;
19329;SDS011;9799;48.214;16.388;2023-07-13T04:17:13;2.30;;;2.10;;
19329;SDS011;9799;48.214;16.388;2023-07-13T04:20:34;5.20;;;2.55;;
19329;SDS011;9799;48.214;16.388;2023-07-13T04:23:55;9.48;;;2.90;;
19329;SDS011;9799;48.214;16.388;2023-07-13T04:27:18;3.67;;;2.72;;
19329;SDS011;9799;48.214;16.388;2023-07-13T04:30:39;4.10;;;2.58;;
19329;SDS011;9799;48.214;16.388;2023-07-13T04:34:01;5.70;;;3.95;;
19329;SDS011;9799;48.214;16.388;2023-07-13T04:37:22;4.68;;;3.17;;
19329;SDS011;9799;48.214;16.388;2023-07-13T04:40:44;3.25;;;2.40;;
19329;SDS011;9799;48.214;16.388;2023-07-13T04:44:07;5.95;;;2.30;;
19329;SDS011;9799;48.214;16.388;2023-07-13T04:47:29;2.20;;;2.00;;
19329;SDS011;9799;48.214;16.388;2023-07-13T04:50:54;4.28;;;2.05;;
19329;SDS011;9799;48.214;16.388;2023-07-13T04:54:16;2.58;;;2.13;;
19329;SDS011;9799;48.214;16.388;2023-07-13T04:57:37;2.15;;;1.85;;
19329;SDS011;9799;48.214;16.388;2023-07-13T05:01:03;3.70;;;2.50;;
19329;SDS011;9799;48.214;16.388;2023-07-13T05:04:25;2.33;;;2.13;;
19329;SDS011;9799;48.214;16.388;2023-07-13T05:07:46;3.65;;;2.30;;
19329;SDS011;9799;48.214;16.388;2023-07-13T05:11:08;2.50;;;2.30;;
19329;SDS011;9799;48.214;16.388;2023-07-13T05:14:29;1.88;;;1.67;;
19329;SDS011;9799;48.214;16.388;2023-07-13T05:17:51;4.28;;;2.22;;
19329;SDS011;9799;48.214;16.388;2023-07-13T05:21:12;4.63;;;2.00;;
19329;SDS011;9799;48.214;16.388;2023-07-13T05:24:34;1.52;;;1.40;;
19329;SDS011;9799;48.214;16.388;2023-07-13T05:27:55;2.35;;;1.58;;
19329;SDS011;9799;48.214;16.388;2023-07-13T05:31:16;1.85;;;1.75;;
19329;SDS011;9799;48.214;16.388;2023-07-13T05:34:39;3.28;;;1.63;;
19329;SDS011;9799;48.214;16.388;2023-07-13T05:38:00;4.20;;;1.70;;
19329;SDS011;9799;48.214;16.388;2023-07-13T05:41:21;3.22;;;1.70;;
19329;SDS011;9799;48.214;16.388;2023-07-13T05:44:42;1.98;;;1.58;;
19329;SDS011;9799;48.214;16.388;2023-07-13T05:48:03;3.05;;;1.88;;
19329;SDS011;9799;48.214;16.388;2023-07-13T05:51:26;1.48;;;1.38;;
19329;SDS011;9799;48.214;16.388;2023-07-13T05:54:47;1.25;;;1.05;;
19329;SDS011;9799;48.214;16.388;2023-07-13T05:58:08;1.30;;;1.20;;
19329;SDS011;9799;48.214;16.388;2023-07-13T06:01:30;5.65;;;1.83;;
19329;SDS011;9799;48.214;16.388;2023-07-13T06:04:51;1.88;;;1.70;;
19329;SDS011;9799;48.214;16.388;2023-07-13T06:08:14;2.08;;;1.60;;
19329;SDS011;9799;48.214;16.388;2023-07-13T06:11:35;1.65;;;1.55;;
19329;SDS011;9799;48.214;16.388;2023-07-13T06:14:56;2.13;;;1.25;;
19329;SDS011;9799;48.214;16.388;2023-07-13T06:18:17;3.00;;;1.42;;
19329;SDS011;9799;48.214;16.388;2023-07-13T06:21:38;4.05;;;1.52;;
19329;SDS011;9799;48.214;16.388;2023-07-13T06:25:01;1.35;;;1.25;;
19329;SDS011;9799;48.214;16.388;2023-07-13T06:28:23;2.85;;;2.00;;
19329;SDS011;9799;48.214;16.388;2023-07-13T06:31:44;1.65;;;1.42;;
19329;SDS011;9799;48.214;16.388;2023-07-13T06:35:06;2.00;;;1.77;;
19329;SDS011;9799;48.214;16.388;2023-07-13T06:38:27;2.40;;;1.80;;
19329;SDS011;9799;48.214;16.388;2023-07-13T06:41:50;3.42;;;1.58;;
19329;SDS011;9799;48.214;16.388;2023-07-13T06:45:11;2.15;;;1.70;;
19329;SDS011;9799;48.214;16.388;2023-07-13T06:48:32;2.42;;;1.60;;
19329;SDS011;9799;48.214;16.388;2023-07-13T06:51:53;3.10;;;1.70;;
19329;SDS011;9799;48.214;16.388;2023-07-13T06:55:14;2.58;;;1.85;;
19329;SDS011;9799;48.214;16.388;2023-07-13T06:58:37;2.42;;;1.95;;
19329;SDS011;9799;48.214;16.388;2023-07-13T07:01:58;1.80;;;1.60;;
19329;SDS011;9799;48.214;16.388;2023-07-13T07:05:19;3.95;;;1.77;;
19329;SDS011;9799;48.214;16.388;2023-07-13T07:08:41;2.00;;;1.70;;
19329;SDS011;9799;48.214;16.388;2023-07-13T07:12:02;2.38;;;1.90;;
19329;SDS011;9799;48.214;16.388;2023-07-13T07:15:26;2.70;;;1.65;;
19329;SDS011;9799;48.214;16.388;2023-07-13T07:18:47;2.10;;;1.63;;
19329;SDS011;9799;48.214;16.388;2023-07-13T07:22:08;3.03;;;1.75;;
19329;SDS011;9799;48.214;16.388;2023-07-13T07:25:30;2.35;;;1.70;;
19329;SDS011;9799;48.214;16.388;2023-07-13T07:28:52;1.67;;;1.58;;
19329;SDS011;9799;48.214;16.388;2023-07-13T07:32:14;2.03;;;1.48;;
19329;SDS011;9799;48.214;16.388;2023-07-13T07:35:35;3.47;;;1.80;;
19329;SDS011;9799;48.214;16.388;2023-07-13T07:38:56;2.67;;;1.80;;
19329;SDS011;9799;48.214;16.388;2023-07-13T07:42:18;2.50;;;1.90;;
19329;SDS011;9799;48.214;16.388;2023-07-13T07:45:39;2.88;;;1.75;;
19329;SDS011;9799;48.214;16.388;2023-07-13T07:49:02;3.45;;;1.80;;
19329;SDS011;9799;48.214;16.388;2023-07-13T07:52:23;1.92;;;1.48;;
19329;SDS011;9799;48.214;16.388;2023-07-13T07:55:44;2.03;;;1.63;;
19329;SDS011;9799;48.214;16.388;2023-07-13T07:59:06;2.05;;;1.85;;
19329;SDS011;9799;48.214;16.388;2023-07-13T08:02:28;2.47;;;1.55;;
19329;SDS011;9799;48.214;16.388;2023-07-13T08:05:53;5.20;;;1.90;;
19329;SDS011;9799;48.214;16.388;2023-07-13T08:09:14;2.55;;;1.90;;
19329;SDS011;9799;48.214;16.388;2023-07-13T08:12:36;1.98;;;1.30;;
19329;SDS011;9799;48.214;16.388;2023-07-13T08:15:57;1.70;;;1.40;;
19329;SDS011;9799;48.214;16.388;2023-07-13T08:19:19;2.42;;;1.80;;
19329;SDS011;9799;48.214;16.388;2023-07-13T08:22:41;1.85;;;1.60;;
19329;SDS011;9799;48.214;16.388;2023-07-13T08:26:03;2.15;;;1.63;;
19329;SDS011;9799;48.214;16.388;2023-07-13T08:29:24;2.22;;;1.90;;
19329;SDS011;9799;48.214;16.388;2023-07-13T08:32:45;5.32;;;2.05;;
19329;SDS011;9799;48.214;16.388;2023-07-13T08:36:07;2.95;;;2.03;;
19329;SDS011;9799;48.214;16.388;2023-07-13T08:39:31;5.28;;;2.40;;
19329;SDS011;9799;48.214;16.388;2023-07-13T08:42:53;3.97;;;2.00;;
19329;SDS011;9799;48.214;16.388;2023-07-13T08:46:17;2.40;;;2.17;;
19329;SDS011;9799;48.214;16.388;2023-07-13T08:49:41;3.92;;;2.60;;
19329;SDS011;9799;48.214;16.388;2023-07-13T08:53:04;2.45;;;2.03;;
19329;SDS011;9799;48.214;16.388;2023-07-13T08:56:30;2.42;;;2.22;;
19329;SDS011;9799;48.214;16.388;2023-07-13T08:59:51;4.22;;;2.63;;
19329;SDS011;9799;48.214;16.388;2023-07-13T09:03:16;3.00;;;2.50;;
19329;SDS011;9799;48.214;16.388;2023-07-13T09:06:42;6.88;;;2.47;;
19329;SDS011;9799;48.214;16.388;2023-07-13T09:10:13;3.00;;;2.63;;
19329;SDS011;9799;48.214;16.388;2023-07-13T09:13:39;4.75;;;2.92;;
19329;SDS011;9799;48.214;16.388;2023-07-13T09:17:11;3.53;;;3.20;;
19329;SDS011;9799;48.214;16.388;2023-07-13T09:20:37;4.03;;;3.22;;
19329;SDS011;9799;48.214;16.388;2023-07-13T09:24:17;5.75;;;3.70;;
19329;SDS011;9799;48.214;16.388;2023-07-13T09:27:48;3.55;;;3.25;;
19329;SDS011;9799;48.214;16.388;2023-07-13T09:31:16;4.65;;;3.40;;
19329;SDS011;9799;48.214;16.388;2023-07-13T09:34:41;4.00;;;3.70;;
19329;SDS011;9799;48.214;16.388;2023-07-13T09:38:04;6.68;;;6.07;;
19329;SDS011;9799;48.214;16.388;2023-07-13T09:41:34;4.10;;;3.70;;
19329;SDS011;9799;48.214;16.388;2023-07-13T09:45:02;5.43;;;3.67;;
19329;SDS011;9799;48.214;16.388;2023-07-13T09:48:32;6.22;;;4.28;;
19329;SDS011;9799;48.214;16.388;2023-07-13T09:51:58;5.97;;;4.60;;
19329;SDS011;9799;48.214;16.388;2023-07-13T09:55:25;5.53;;;4.15;;
19329;SDS011;9799;48.214;16.388;2023-07-13T09:58:49;5.05;;;3.60;;
19329;SDS011;9799;48.214;16.388;2023-07-13T10:02:24;4.93;;;4.43;;
19329;SDS011;9799;48.214;16.388;2023-07-13T10:05:49;3.70;;;3.40;;
19329;SDS011;9799;48.214;16.388;2023-07-13T10:09:13;4.80;;;4.30;;
19329;SDS011;9799;48.214;16.388;2023-07-13T10:12:37;3.78;;;3.42;;
19329;SDS011;9799;48.214;16.388;2023-07-13T10:15:59;4.05;;;3.70;;
19329;SDS011;9799;48.214;16.388;2023-07-13T10:19:22;5.38;;;4.68;;
19329;SDS011;9799;48.214;16.388;2023-07-13T10:22:49;4.45;;;4.03;;
19329;SDS011;9799;48.214;16.388;2023-07-13T10:26:25;4.50;;;4.20;;
19329;SDS011;9799;48.214;16.388;2023-07-13T10:29:52;4.90;;;3.95;;
19329;SDS011;9799;48.214;16.388;2023-07-13T10:33:19;5.32;;;4.82;;
19329;SDS011;9799;48.214;16.388;2023-07-13T10:36:42;4.68;;;4.07;;
19329;SDS011;9799;48.214;16.388;2023-07-13T10:40:11;4.82;;;4.32;;
19329;SDS011;9799;48.214;16.388;2023-07-13T10:43:35;7.03;;;3.63;;
19329;SDS011;9799;48.214;16.388;2023-07-13T10:47:01;4.88;;;4.47;;
19329;SDS011;9799;48.214;16.388;2023-07-13T10:50:26;5.03;;;4.63;;
19329;SDS011;9799;48.214;16.388;2023-07-13T10:57:42;8.65;;;4.75;;
19329;SDS011;9799;48.214;16.388;2023-07-13T11:01:07;8.27;;;6.68;;
19329;SDS011;9799;48.214;16.388;2023-07-13T11:04:29;4.95;;;4.53;;
19329;SDS011;9799;48.214;16.388;2023-07-13T11:08:13;11.77;;;4.80;;
19329;SDS011;9799;48.214;16.388;2023-07-13T11:11:40;7.25;;;6.50;;
19329;SDS011;9799;48.214;16.388;2023-07-13T11:15:04;5.47;;;4.93;;
19329;SDS011;9799;48.214;16.388;2023-07-13T11:18:32;5.65;;;4.25;;
19329;SDS011;9799;48.214;16.388;2023-07-13T11:25:45;5.35;;;4.80;;
19329;SDS011;9799;48.214;16.388;2023-07-13T11:29:08;8.20;;;4.20;;
19329;SDS011;9799;48.214;16.388;2023-07-13T11:32:44;4.50;;;4.10;;
19329;SDS011;9799;48.214;16.388;2023-07-13T11:36:12;5.35;;;4.00;;
19329;SDS011;9799;48.214;16.388;2023-07-13T11:39:41;4.00;;;3.60;;
19329;SDS011;9799;48.214;16.388;2023-07-13T11:43:04;6.63;;;3.97;;
19329;SDS011;9799;48.214;16.388;2023-07-13T11:46:27;4.15;;;3.63;;
19329;SDS011;9799;48.214;16.388;2023-07-13T11:49:51;5.35;;;4.40;;
19329;SDS011;9799;48.214;16.388;2023-07-13T11:53:15;5.88;;;3.80;;
19329;SDS011;9799;48.214;16.388;2023-07-13T11:56:36;3.65;;;3.35;;
19329;SDS011;9799;48.214;16.388;2023-07-13T11:59:58;3.67;;;3.35;;
19329;SDS011;9799;48.214;16.388;2023-07-13T12:03:22;3.90;;;3.50;;
19329;SDS011;9799;48.214;16.388;2023-07-13T12:06:47;5.28;;;3.40;;
19329;SDS011;9799;48.214;16.388;2023-07-13T12:10:18;4.65;;;3.67;;
19329;SDS011;9799;48.214;16.388;2023-07-13T12:13:40;5.47;;;3.83;;
19329;SDS011;9799;48.214;16.388;2023-07-13T12:17:04;9.77;;;3.95;;
19329;SDS011;9799;48.214;16.388;2023-07-13T12:20:33;5.63;;;3.53;;
19329;SDS011;9799;48.214;16.388;2023-07-13T12:24:00;4.72;;;3.55;;
19329;SDS011;9799;48.214;16.388;2023-07-13T12:27:24;4.25;;;3.85;;
19329;SDS011;9799;48.214;16.388;2023-07-13T12:30:47;3.78;;;3.45;;
19329;SDS011;9799;48.214;16.388;2023-07-13T12:34:10;4.78;;;4.28;;
19329;SDS011;9799;48.214;16.388;2023-07-13T12:37:33;4.57;;;3.85;;
19329;SDS011;9799;48.214;16.388;2023-07-13T12:40:56;4.30;;;3.85;;
19329;SDS011;9799;48.214;16.388;2023-07-13T12:44:19;4.60;;;3.60;;
19329;SDS011;9799;48.214;16.388;2023-07-13T12:47:48;4.18;;;3.40;;
19329;SDS011;9799;48.214;16.388;2023-07-13T12:51:13;5.13;;;3.40;;
19329;SDS011;9799;48.214;16.388;2023-07-13T12:54:34;3.45;;;3.15;;
19329;SDS011;9799;48.214;16.388;2023-07-13T12:58:03;4.10;;;3.35;;
19329;SDS011;9799;48.214;16.388;2023-07-13T13:01:26;4.25;;;3.35;;
19329;SDS011;9799;48.214;16.388;2023-07-13T13:04:48;4.30;;;3.60;;
19329;SDS011;9799;48.214;16.388;2023-07-13T13:08:10;5.47;;;4.10;;
19329;SDS011;9799;48.214;16.388;2023-07-13T13:11:32;5.13;;;3.63;;
19329;SDS011;9799;48.214;16.388;2023-07-13T13:14:55;3.75;;;3.45;;
19329;SDS011;9799;48.214;16.388;2023-07-13T13:18:17;3.58;;;3.15;;
19329;SDS011;9799;48.214;16.388;2023-07-13T13:21:39;6.28;;;4.32;;
19329;SDS011;9799;48.214;16.388;2023-07-13T13:25:00;4.65;;;3.50;;
19329;SDS011;9799;48.214;16.388;2023-07-13T13:28:22;3.83;;;3.53;;
19329;SDS011;9799;48.214;16.388;2023-07-13T13:31:44;5.15;;;3.67;;
19329;SDS011;9799;48.214;16.388;2023-07-13T13:35:09;6.13;;;5.07;;
19329;SDS011;9799;48.214;16.388;2023-07-13T13:38:33;8.68;;;4.38;;
19329;SDS011;9799;48.214;16.388;2023-07-13T13:41:55;4.05;;;3.65;;
19329;SDS011;9799;48.214;16.388;2023-07-13T13:45:16;6.97;;;3.80;;
19329;SDS011;9799;48.214;16.388;2023-07-13T13:48:41;7.35;;;3.80;;
19329;SDS011;9799;48.214;16.388;2023-07-13T13:52:02;3.72;;;3.42;;
19329;SDS011;9799;48.214;16.388;2023-07-13T13:55:24;3.83;;;3.22;;
19329;SDS011;9799;48.214;16.388;2023-07-13T13:58:45;6.03;;;3.38;;
19329;SDS011;9799;48.214;16.388;2023-07-13T14:02:11;3.75;;;3.45;;
19329;SDS011;9799;48.214;16.388;2023-07-13T14:05:44;3.58;;;3.22;;
19329;SDS011;9799;48.214;16.388;2023-07-13T14:09:07;6.00;;;3.35;;
19329;SDS011;9799;48.214;16.388;2023-07-13T14:12:33;3.03;;;2.83;;
19329;SDS011;9799;48.214;16.388;2023-07-13T14:15:54;4.00;;;3.63;;
19329;SDS011;9799;48.214;16.388;2023-07-13T14:19:16;4.45;;;4.15;;
19329;SDS011;9799;48.214;16.388;2023-07-13T14:22:38;4.20;;;3.80;;
19329;SDS011;9799;48.214;16.388;2023-07-13T14:25:59;3.55;;;3.30;;
19329;SDS011;9799;48.214;16.388;2023-07-13T14:29:21;3.70;;;3.22;;
19329;SDS011;9799;48.214;16.388;2023-07-13T14:32:42;3.55;;;3.25;;
19329;SDS011;9799;48.214;16.388;2023-07-13T14:36:05;3.92;;;3.53;;
19329;SDS011;9799;48.214;16.388;2023-07-13T14:39:44;6.97;;;3.67;;
19329;SDS011;9799;48.214;16.388;2023-07-13T14:43:09;4.20;;;3.90;;
19329;SDS011;9799;48.214;16.388;2023-07-13T14:46:33;4.03;;;3.72;;
19329;SDS011;9799;48.214;16.388;2023-07-13T14:49:55;3.70;;;3.40;;
19329;SDS011;9799;48.214;16.388;2023-07-13T14:53:17;7.43;;;3.65;;
19329;SDS011;9799;48.214;16.388;2023-07-13T14:56:39;6.82;;;3.72;;
19329;SDS011;9799;48.214;16.388;2023-07-13T15:00:01;4.95;;;3.10;;
19329;SDS011;9799;48.214;16.388;2023-07-13T15:03:32;4.07;;;3.75;;
19329;SDS011;9799;48.214;16.388;2023-07-13T15:06:55;3.83;;;3.42;;
19329;SDS011;9799;48.214;16.388;2023-07-13T15:10:19;5.05;;;4.10;;
19329;SDS011;9799;48.214;16.388;2023-07-13T15:13:43;5.05;;;3.75;;
19329;SDS011;9799;48.214;16.388;2023-07-13T15:17:08;4.32;;;4.03;;
19329;SDS011;9799;48.214;16.388;2023-07-13T15:20:42;4.88;;;3.78;;
19329;SDS011;9799;48.214;16.388;2023-07-13T15:24:07;9.13;;;3.58;;
19329;SDS011;9799;48.214;16.388;2023-07-13T15:27:29;4.03;;;3.60;;
19329;SDS011;9799;48.214;16.388;2023-07-13T15:30:52;5.45;;;3.42;;
19329;SDS011;9799;48.214;16.388;2023-07-13T15:34:14;6.28;;;3.67;;
19329;SDS011;9799;48.214;16.388;2023-07-13T15:37:46;9.75;;;5.25;;
19329;SDS011;9799;48.214;16.388;2023-07-13T15:41:09;4.32;;;3.97;;
19329;SDS011;9799;48.214;16.388;2023-07-13T15:44:37;4.13;;;3.45;;
19329;SDS011;9799;48.214;16.388;2023-07-13T15:47:59;4.20;;;3.33;;
19329;SDS011;9799;48.214;16.388;2023-07-13T15:51:22;4.25;;;3.60;;
19329;SDS011;9799;48.214;16.388;2023-07-13T15:54:45;5.32;;;3.30;;
19329;SDS011;9799;48.214;16.388;2023-07-13T15:58:08;4.15;;;3.30;;
19329;SDS011;9799;48.214;16.388;2023-07-13T16:01:33;4.95;;;3.13;;
19329;SDS011;9799;48.214;16.388;2023-07-13T16:04:56;5.50;;;3.83;;
19329;SDS011;9799;48.214;16.388;2023-07-13T16:08:20;4.03;;;3.50;;
19329;SDS011;9799;48.214;16.388;2023-07-13T16:11:44;3.35;;;3.05;;
19329;SDS011;9799;48.214;16.388;2023-07-13T16:15:08;3.83;;;3.38;;
19329;SDS011;9799;48.214;16.388;2023-07-13T16:18:35;4.18;;;3.70;;
19329;SDS011;9799;48.214;16.388;2023-07-13T16:21:58;4.07;;;3.28;;
19329;SDS011;9799;48.214;16.388;2023-07-13T16:25:21;5.28;;;2.90;;
19329;SDS011;9799;48.214;16.388;2023-07-13T16:28:44;4.38;;;3.28;;
19329;SDS011;9799;48.214;16.388;2023-07-13T16:32:06;5.55;;;3.53;;
19329;SDS011;9799;48.214;16.388;2023-07-13T16:35:32;9.60;;;3.70;;
19329;SDS011;9799;48.214;16.388;2023-07-13T16:38:58;4.18;;;3.50;;
19329;SDS011;9799;48.214;16.388;2023-07-13T16:42:19;5.30;;;3.40;;
19329;SDS011;9799;48.214;16.388;2023-07-13T16:45:41;3.25;;;2.88;;
19329;SDS011;9799;48.214;16.388;2023-07-13T16:49:04;3.35;;;3.00;;
19329;SDS011;9799;48.214;16.388;2023-07-13T16:52:31;5.93;;;3.40;;
19329;SDS011;9799;48.214;16.388;2023-07-13T16:55:54;4.68;;;2.95;;
19329;SDS011;9799;48.214;16.388;2023-07-13T16:59:19;4.93;;;3.53;;
19329;SDS011;9799;48.214;16.388;2023-07-13T17:02:41;3.60;;;3.30;;
19329;SDS011;9799;48.214;16.388;2023-07-13T17:06:12;3.85;;;3.53;;
19329;SDS011;9799;48.214;16.388;2023-07-13T17:09:44;3.92;;;3.40;;
19329;SDS011;9799;48.214;16.388;2023-07-13T17:13:13;8.27;;;3.97;;
19329;SDS011;9799;48.214;16.388;2023-07-13T17:16:37;4.78;;;3.45;;
19329;SDS011;9799;48.214;16.388;2023-07-13T17:19:59;4.10;;;3.28;;
19329;SDS011;9799;48.214;16.388;2023-07-13T17:23:24;5.35;;;3.97;;
19329;SDS011;9799;48.214;16.388;2023-07-13T17:26:46;3.55;;;3.25;;
19329;SDS011;9799;48.214;16.388;2023-07-13T17:30:14;5.13;;;3.00;;
19329;SDS011;9799;48.214;16.388;2023-07-13T17:33:37;5.45;;;3.15;;
19329;SDS011;9799;48.214;16.388;2023-07-13T17:37:00;5.30;;;3.33;;
19329;SDS011;9799;48.214;16.388;2023-07-13T17:40:24;5.65;;;3.75;;
19329;SDS011;9799;48.214;16.388;2023-07-13T17:43:46;4.00;;;3.38;;
19329;SDS011;9799;48.214;16.388;2023-07-13T17:47:12;3.72;;;2.95;;
19329;SDS011;9799;48.214;16.388;2023-07-13T17:50:44;5.28;;;3.42;;
19329;SDS011;9799;48.214;16.388;2023-07-13T17:54:11;9.40;;;3.95;;
19329;SDS011;9799;48.214;16.388;2023-07-13T17:57:34;3.92;;;3.40;;
19329;SDS011;9799;48.214;16.388;2023-07-13T18:00:56;5.47;;;3.88;;
19329;SDS011;9799;48.214;16.388;2023-07-13T18:04:19;6.15;;;4.03;;
19329;SDS011;9799;48.214;16.388;2023-07-13T18:07:43;6.70;;;3.50;;
19329;SDS011;9799;48.214;16.388;2023-07-13T18:11:08;3.65;;;3.15;;
19329;SDS011;9799;48.214;16.388;2023-07-13T18:14:31;5.40;;;3.55;;
19329;SDS011;9799;48.214;16.388;2023-07-13T18:17:55;7.07;;;3.53;;
19329;SDS011;9799;48.214;16.388;2023-07-13T18:21:21;3.90;;;3.30;;
19329;SDS011;9799;48.214;16.388;2023-07-13T18:24:45;7.95;;;3.38;;
19329;SDS011;9799;48.214;16.388;2023-07-13T18:28:08;5.25;;;3.58;;
19329;SDS011;9799;48.214;16.388;2023-07-13T18:31:32;7.50;;;4.05;;
19329;SDS011;9799;48.214;16.388;2023-07-13T18:34:56;3.28;;;2.85;;
19329;SDS011;9799;48.214;16.388;2023-07-13T18:38:22;3.20;;;2.97;;
19329;SDS011;9799;48.214;16.388;2023-07-13T18:41:46;3.78;;;3.10;;
19329;SDS011;9799;48.214;16.388;2023-07-13T18:45:10;3.80;;;3.35;;
19329;SDS011;9799;48.214;16.388;2023-07-13T18:48:34;4.55;;;3.08;;
19329;SDS011;9799;48.214;16.388;2023-07-13T18:51:56;6.45;;;2.75;;
19329;SDS011;9799;48.214;16.388;2023-07-13T18:55:20;9.70;;;8.10;;
19329;SDS011;9799;48.214;16.388;2023-07-13T18:58:43;3.55;;;3.15;;
19329;SDS011;9799;48.214;16.388;2023-07-13T19:02:09;5.60;;;2.80;;
19329;SDS011;9799;48.214;16.388;2023-07-13T19:05:33;3.30;;;2.90;;
19329;SDS011;9799;48.214;16.388;2023-07-13T19:08:56;6.25;;;3.17;;
19329;SDS011;9799;48.214;16.388;2023-07-13T19:12:20;4.25;;;2.72;;
19329;SDS011;9799;48.214;16.388;2023-07-13T19:15:44;3.63;;;2.85;;
19329;SDS011;9799;48.214;16.388;2023-07-13T19:19:08;4.30;;;3.38;;
19329;SDS011;9799;48.214;16.388;2023-07-13T19:22:34;4.35;;;2.80;;
19329;SDS011;9799;48.214;16.388;2023-07-13T19:25:58;3.55;;;3.15;;
19329;SDS011;9799;48.214;16.388;2023-07-13T19:29:26;2.67;;;2.47;;
19329;SDS011;9799;48.214;16.388;2023-07-13T19:32:50;3.50;;;3.15;;
19329;SDS011;9799;48.214;16.388;2023-07-13T19:36:13;3.75;;;2.50;;
19329;SDS011;9799;48.214;16.388;2023-07-13T19:39:38;5.05;;;3.28;;
19329;SDS011;9799;48.214;16.388;2023-07-13T19:43:02;2.78;;;2.58;;
19329;SDS011;9799;48.214;16.388;2023-07-13T19:46:30;4.25;;;2.90;;
19329;SDS011;9799;48.214;16.388;2023-07-13T19:49:53;4.20;;;2.85;;
19329;SDS011;9799;48.214;16.388;2023-07-13T19:53:17;3.30;;;3.00;;
19329;SDS011;9799;48.214;16.388;2023-07-13T19:56:42;3.13;;;2.80;;
19329;SDS011;9799;48.214;16.388;2023-07-13T20:00:09;3.30;;;2.90;;
19329;SDS011;9799;48.214;16.388;2023-07-13T20:03:38;6.40;;;2.65;;
19329;SDS011;9799;48.214;16.388;2023-07-13T20:07:02;3.20;;;2.90;;
19329;SDS011;9799;48.214;16.388;2023-07-13T20:10:27;4.20;;;3.42;;
19329;SDS011;9799;48.214;16.388;2023-07-13T20:13:50;4.85;;;2.67;;
19329;SDS011;9799;48.214;16.388;2023-07-13T20:17:25;3.10;;;2.80;;
19329;SDS011;9799;48.214;16.388;2023-07-13T20:20:52;3.53;;;3.22;;
19329;SDS011;9799;48.214;16.388;2023-07-13T20:24:15;3.65;;;3.35;;
19329;SDS011;9799;48.214;16.388;2023-07-13T20:27:39;3.13;;;2.83;;
19329;SDS011;9799;48.214;16.388;2023-07-13T20:31:01;4.05;;;2.60;;
19329;SDS011;9799;48.214;16.388;2023-07-13T20:34:24;3.83;;;3.03;;